Terminal Aerodrome Forecast
Issued by NWS Cleveland, OH

Home | Current Version | Previous Version | Graphics & Text | Print | Product List | Glossary Off
Versions: 1 2 3 4 5 6 7 8 9 10 11 12

968
FTUS41 KCLE 210521
TAFMFD
TAF
KMFD 210521Z 2106/2206 00000KT P6SM SCT250
     FM211700 03006KT P6SM BKN200=

USA.gov is the U.S. government's official web portal to all federal, state and local government web resources and services.